sensor_id;sensor_type;location;lat;lon;timestamp;temperature;humidity
66343;DHT22;53144;51.524;5.080;2022-08-25T00:01:54;21.75;84.08
66343;DHT22;53144;51.524;5.080;2022-08-25T00:04:22;21.66;84.30
66343;DHT22;53144;51.524;5.080;2022-08-25T00:06:48;21.56;84.66
66343;DHT22;53144;51.524;5.080;2022-08-25T00:09:16;21.44;84.92
66343;DHT22;53144;51.524;5.080;2022-08-25T00:11:43;21.30;85.23
66343;DHT22;53144;51.524;5.080;2022-08-25T00:14:13;21.28;85.38
66343;DHT22;53144;51.524;5.080;2022-08-25T00:16:38;21.30;85.62
66343;DHT22;53144;51.524;5.080;2022-08-25T00:19:09;21.17;85.54
66343;DHT22;53144;51.524;5.080;2022-08-25T00:21:35;21.27;85.41
66343;DHT22;53144;51.524;5.080;2022-08-25T00:24:01;21.24;84.93
66343;DHT22;53144;51.524;5.080;2022-08-25T00:26:28;21.12;85.71
66343;DHT22;53144;51.524;5.080;2022-08-25T00:28:53;20.93;86.44
66343;DHT22;53144;51.524;5.080;2022-08-25T00:31:20;20.80;86.63
66343;DHT22;53144;51.524;5.080;2022-08-25T00:33:48;20.59;87.27
66343;DHT22;53144;51.524;5.080;2022-08-25T00:36:16;20.47;87.69
66343;DHT22;53144;51.524;5.080;2022-08-25T00:38:44;20.42;87.99
66343;DHT22;53144;51.524;5.080;2022-08-25T00:41:12;20.43;87.77
66343;DHT22;53144;51.524;5.080;2022-08-25T00:46:11;20.16;88.80
66343;DHT22;53144;51.524;5.080;2022-08-25T00:48:38;20.14;88.65
66343;DHT22;53144;51.524;5.080;2022-08-25T00:51:06;20.12;89.42
66343;DHT22;53144;51.524;5.080;2022-08-25T00:53:34;20.08;89.28
66343;DHT22;53144;51.524;5.080;2022-08-25T00:56:00;20.12;89.56
66343;DHT22;53144;51.524;5.080;2022-08-25T00:58:27;20.05;89.79
66343;DHT22;53144;51.524;5.080;2022-08-25T01:00:56;20.04;89.90
66343;DHT22;53144;51.524;5.080;2022-08-25T01:03:23;20.16;89.49
66343;DHT22;53144;51.524;5.080;2022-08-25T01:05:49;20.12;89.27
66343;DHT22;53144;51.524;5.080;2022-08-25T01:08:15;20.16;89.45
66343;DHT22;53144;51.524;5.080;2022-08-25T01:10:46;20.12;89.75
66343;DHT22;53144;51.524;5.080;2022-08-25T01:13:24;20.08;89.41
66343;DHT22;53144;51.524;5.080;2022-08-25T01:15:52;19.98;89.76
66343;DHT22;53144;51.524;5.080;2022-08-25T01:18:18;20.08;89.35
66343;DHT22;53144;51.524;5.080;2022-08-25T01:20:48;19.99;89.40
66343;DHT22;53144;51.524;5.080;2022-08-25T01:23:14;20.04;89.42
66343;DHT22;53144;51.524;5.080;2022-08-25T01:28:24;19.97;89.51
66343;DHT22;53144;51.524;5.080;2022-08-25T01:30:50;19.95;89.35
66343;DHT22;53144;51.524;5.080;2022-08-25T01:33:16;20.01;89.28
66343;DHT22;53144;51.524;5.080;2022-08-25T01:35:43;19.92;89.73
66343;DHT22;53144;51.524;5.080;2022-08-25T01:38:09;20.05;89.29
66343;DHT22;53144;51.524;5.080;2022-08-25T01:40:35;19.92;89.74
66343;DHT22;53144;51.524;5.080;2022-08-25T01:45:41;19.73;90.26
66343;DHT22;53144;51.524;5.080;2022-08-25T01:48:08;19.68;90.25
66343;DHT22;53144;51.524;5.080;2022-08-25T01:50:35;19.63;90.12
66343;DHT22;53144;51.524;5.080;2022-08-25T01:55:32;19.56;90.42
66343;DHT22;53144;51.524;5.080;2022-08-25T01:58:17;19.46;90.96
66343;DHT22;53144;51.524;5.080;2022-08-25T02:00:47;19.41;90.67
66343;DHT22;53144;51.524;5.080;2022-08-25T02:03:14;19.40;91.07
66343;DHT22;53144;51.524;5.080;2022-08-25T02:05:39;19.40;91.04
66343;DHT22;53144;51.524;5.080;2022-08-25T02:08:05;19.33;91.20
66343;DHT22;53144;51.524;5.080;2022-08-25T02:10:32;19.33;91.33
66343;DHT22;53144;51.524;5.080;2022-08-25T02:12:57;19.31;91.11
66343;DHT22;53144;51.524;5.080;2022-08-25T02:15:23;19.26;91.37
66343;DHT22;53144;51.524;5.080;2022-08-25T02:17:48;19.22;91.07
66343;DHT22;53144;51.524;5.080;2022-08-25T02:20:14;19.20;91.04
66343;DHT22;53144;51.524;5.080;2022-08-25T02:22:39;19.20;90.94
66343;DHT22;53144;51.524;5.080;2022-08-25T02:25:05;19.16;91.07
66343;DHT22;53144;51.524;5.080;2022-08-25T02:27:31;19.16;90.98
66343;DHT22;53144;51.524;5.080;2022-08-25T02:29:56;19.18;90.83
66343;DHT22;53144;51.524;5.080;2022-08-25T02:32:21;19.18;90.94
66343;DHT22;53144;51.524;5.080;2022-08-25T02:34:47;19.19;90.84
66343;DHT22;53144;51.524;5.080;2022-08-25T02:37:12;19.22;90.93
66343;DHT22;53144;51.524;5.080;2022-08-25T02:39:39;19.15;90.89
66343;DHT22;53144;51.524;5.080;2022-08-25T02:42:04;19.18;90.71
66343;DHT22;53144;51.524;5.080;2022-08-25T02:44:30;19.12;90.92
66343;DHT22;53144;51.524;5.080;2022-08-25T02:46:56;19.12;90.85
66343;DHT22;53144;51.524;5.080;2022-08-25T02:49:21;19.13;90.87
66343;DHT22;53144;51.524;5.080;2022-08-25T02:51:46;19.03;91.14
66343;DHT22;53144;51.524;5.080;2022-08-25T02:54:12;18.95;91.08
66343;DHT22;53144;51.524;5.080;2022-08-25T02:56:38;18.87;91.05
66343;DHT22;53144;51.524;5.080;2022-08-25T02:59:04;18.84;91.67
66343;DHT22;53144;51.524;5.080;2022-08-25T03:01:30;18.82;91.60
66343;DHT22;53144;51.524;5.080;2022-08-25T03:03:57;18.76;91.67
66343;DHT22;53144;51.524;5.080;2022-08-25T03:06:23;18.75;91.48
66343;DHT22;53144;51.524;5.080;2022-08-25T03:08:49;18.76;91.28
66343;DHT22;53144;51.524;5.080;2022-08-25T03:11:15;18.68;91.52
66343;DHT22;53144;51.524;5.080;2022-08-25T03:13:41;18.67;91.19
66343;DHT22;53144;51.524;5.080;2022-08-25T03:16:07;18.65;91.19
66343;DHT22;53144;51.524;5.080;2022-08-25T03:18:33;18.62;91.45
66343;DHT22;53144;51.524;5.080;2022-08-25T03:20:59;18.57;90.55
66343;DHT22;53144;51.524;5.080;2022-08-25T03:23:24;18.58;91.18
66343;DHT22;53144;51.524;5.080;2022-08-25T03:25:53;18.58;90.74
66343;DHT22;53144;51.524;5.080;2022-08-25T03:28:37;18.52;90.76
66343;DHT22;53144;51.524;5.080;2022-08-25T03:31:03;18.52;90.26
66343;DHT22;53144;51.524;5.080;2022-08-25T03:33:29;18.58;89.96
66343;DHT22;53144;51.524;5.080;2022-08-25T03:35:55;18.57;89.98
66343;DHT22;53144;51.524;5.080;2022-08-25T03:38:22;18.51;89.63
66343;DHT22;53144;51.524;5.080;2022-08-25T03:40:48;18.51;89.78
66343;DHT22;53144;51.524;5.080;2022-08-25T03:43:14;18.47;89.77
66343;DHT22;53144;51.524;5.080;2022-08-25T03:45:43;18.43;89.22
66343;DHT22;53144;51.524;5.080;2022-08-25T03:48:10;18.37;89.40
66343;DHT22;53144;51.524;5.080;2022-08-25T03:50:36;18.37;89.36
66343;DHT22;53144;51.524;5.080;2022-08-25T03:53:02;18.34;89.17
66343;DHT22;53144;51.524;5.080;2022-08-25T03:55:27;18.30;89.69
66343;DHT22;53144;51.524;5.080;2022-08-25T03:57:53;18.23;89.37
66343;DHT22;53144;51.524;5.080;2022-08-25T04:00:21;18.23;89.34
66343;DHT22;53144;51.524;5.080;2022-08-25T04:02:47;18.20;89.07
66343;DHT22;53144;51.524;5.080;2022-08-25T04:05:13;18.10;89.24
66343;DHT22;53144;51.524;5.080;2022-08-25T04:07:39;18.17;88.71
66343;DHT22;53144;51.524;5.080;2022-08-25T04:10:07;18.10;89.06
66343;DHT22;53144;51.524;5.080;2022-08-25T04:12:34;18.09;89.00
66343;DHT22;53144;51.524;5.080;2022-08-25T04:15:00;18.04;88.96
66343;DHT22;53144;51.524;5.080;2022-08-25T04:17:25;18.04;88.36
66343;DHT22;53144;51.524;5.080;2022-08-25T04:19:51;18.06;88.55
66343;DHT22;53144;51.524;5.080;2022-08-25T04:22:17;18.00;88.72
66343;DHT22;53144;51.524;5.080;2022-08-25T04:24:42;17.94;88.60
66343;DHT22;53144;51.524;5.080;2022-08-25T04:27:08;17.90;88.28
66343;DHT22;53144;51.524;5.080;2022-08-25T04:29:33;17.86;89.02
66343;DHT22;53144;51.524;5.080;2022-08-25T04:31:59;17.87;88.43
66343;DHT22;53144;51.524;5.080;2022-08-25T04:34:27;17.90;87.61
66343;DHT22;53144;51.524;5.080;2022-08-25T04:36:53;17.82;88.47
66343;DHT22;53144;51.524;5.080;2022-08-25T04:39:19;17.78;89.16
66343;DHT22;53144;51.524;5.080;2022-08-25T04:41:49;17.73;88.31
66343;DHT22;53144;51.524;5.080;2022-08-25T04:44:15;17.76;87.82
66343;DHT22;53144;51.524;5.080;2022-08-25T04:46:41;17.78;87.84
66343;DHT22;53144;51.524;5.080;2022-08-25T04:49:07;17.78;88.03
66343;DHT22;53144;51.524;5.080;2022-08-25T04:51:37;17.76;87.08
66343;DHT22;53144;51.524;5.080;2022-08-25T04:54:07;17.76;86.97
66343;DHT22;53144;51.524;5.080;2022-08-25T04:56:33;17.66;88.21
66343;DHT22;53144;51.524;5.080;2022-08-25T04:59:09;17.68;87.53
66343;DHT22;53144;51.524;5.080;2022-08-25T05:01:35;17.71;87.06
66343;DHT22;53144;51.524;5.080;2022-08-25T05:04:04;17.73;87.30
66343;DHT22;53144;51.524;5.080;2022-08-25T05:06:30;17.66;87.95
66343;DHT22;53144;51.524;5.080;2022-08-25T05:08:56;17.71;86.78
66343;DHT22;53144;51.524;5.080;2022-08-25T05:11:24;17.72;86.02
66343;DHT22;53144;51.524;5.080;2022-08-25T05:13:51;17.71;87.19
66343;DHT22;53144;51.524;5.080;2022-08-25T05:16:18;17.78;87.83
66343;DHT22;53144;51.524;5.080;2022-08-25T05:18:43;17.73;87.55
66343;DHT22;53144;51.524;5.080;2022-08-25T05:21:19;17.76;85.83
66343;DHT22;53144;51.524;5.080;2022-08-25T05:23:45;17.78;87.20
66343;DHT22;53144;51.524;5.080;2022-08-25T05:26:20;17.82;86.84
66343;DHT22;53144;51.524;5.080;2022-08-25T05:28:47;17.85;87.08
66343;DHT22;53144;51.524;5.080;2022-08-25T05:31:14;17.92;86.67
66343;DHT22;53144;51.524;5.080;2022-08-25T05:33:40;17.89;85.78
66343;DHT22;53144;51.524;5.080;2022-08-25T05:36:07;17.89;86.28
66343;DHT22;53144;51.524;5.080;2022-08-25T05:38:34;17.93;85.95
66343;DHT22;53144;51.524;5.080;2022-08-25T05:41:05;17.96;86.20
66343;DHT22;53144;51.524;5.080;2022-08-25T05:43:31;17.93;85.60
66343;DHT22;53144;51.524;5.080;2022-08-25T05:45:58;18.04;86.16
66343;DHT22;53144;51.524;5.080;2022-08-25T05:48:24;18.13;86.84
66343;DHT22;53144;51.524;5.080;2022-08-25T05:50:55;18.17;85.36
66343;DHT22;53144;51.524;5.080;2022-08-25T05:53:23;18.37;87.42
66343;DHT22;53144;51.524;5.080;2022-08-25T05:56:22;18.54;84.86
66343;DHT22;53144;51.524;5.080;2022-08-25T05:59:08;18.81;82.54
66343;DHT22;53144;51.524;5.080;2022-08-25T06:01:33;18.95;83.20
66343;DHT22;53144;51.524;5.080;2022-08-25T06:04:17;19.06;84.64
66343;DHT22;53144;51.524;5.080;2022-08-25T06:06:44;19.20;82.86
66343;DHT22;53144;51.524;5.080;2022-08-25T06:09:09;19.34;81.99
66343;DHT22;53144;51.524;5.080;2022-08-25T06:11:36;19.49;80.79
66343;DHT22;53144;51.524;5.080;2022-08-25T06:14:04;19.67;80.58
66343;DHT22;53144;51.524;5.080;2022-08-25T06:16:29;19.87;80.15
66343;DHT22;53144;51.524;5.080;2022-08-25T06:18:55;19.98;79.08
66343;DHT22;53144;51.524;5.080;2022-08-25T06:21:20;20.15;78.22
66343;DHT22;53144;51.524;5.080;2022-08-25T06:23:45;20.29;77.92
66343;DHT22;53144;51.524;5.080;2022-08-25T06:26:13;20.37;78.03
66343;DHT22;53144;51.524;5.080;2022-08-25T06:28:39;20.45;77.00
66343;DHT22;53144;51.524;5.080;2022-08-25T06:31:05;20.60;76.52
66343;DHT22;53144;51.524;5.080;2022-08-25T06:33:30;20.67;77.12
66343;DHT22;53144;51.524;5.080;2022-08-25T06:35:56;20.76;77.13
66343;DHT22;53144;51.524;5.080;2022-08-25T06:38:22;20.80;76.70
66343;DHT22;53144;51.524;5.080;2022-08-25T06:40:49;20.87;77.04
66343;DHT22;53144;51.524;5.080;2022-08-25T06:43:16;20.97;75.60
66343;DHT22;53144;51.524;5.080;2022-08-25T06:45:41;21.03;76.34
66343;DHT22;53144;51.524;5.080;2022-08-25T06:48:09;21.00;77.42
66343;DHT22;53144;51.524;5.080;2022-08-25T06:50:37;21.05;75.62
66343;DHT22;53144;51.524;5.080;2022-08-25T06:53:03;21.14;74.89
66343;DHT22;53144;51.524;5.080;2022-08-25T06:55:29;21.18;75.40
66343;DHT22;53144;51.524;5.080;2022-08-25T06:57:54;21.30;76.20
66343;DHT22;53144;51.524;5.080;2022-08-25T07:00:20;21.35;74.27
66343;DHT22;53144;51.524;5.080;2022-08-25T07:02:45;21.39;76.73
66343;DHT22;53144;51.524;5.080;2022-08-25T07:05:11;21.46;73.66
66343;DHT22;53144;51.524;5.080;2022-08-25T07:07:37;21.59;73.53
66343;DHT22;53144;51.524;5.080;2022-08-25T07:10:03;21.67;75.56
66343;DHT22;53144;51.524;5.080;2022-08-25T07:12:29;21.75;76.11
66343;DHT22;53144;51.524;5.080;2022-08-25T07:14:54;21.85;73.85
66343;DHT22;53144;51.524;5.080;2022-08-25T07:17:20;21.97;71.38
66343;DHT22;53144;51.524;5.080;2022-08-25T07:19:48;22.14;70.68
66343;DHT22;53144;51.524;5.080;2022-08-25T07:22:13;22.20;70.43
66343;DHT22;53144;51.524;5.080;2022-08-25T07:24:39;22.39;68.09
66343;DHT22;53144;51.524;5.080;2022-08-25T07:27:05;22.40;70.16
66343;DHT22;53144;51.524;5.080;2022-08-25T07:29:31;22.62;67.90
66343;DHT22;53144;51.524;5.080;2022-08-25T07:32:00;22.68;69.38
66343;DHT22;53144;51.524;5.080;2022-08-25T07:34:26;22.88;67.44
66343;DHT22;53144;51.524;5.080;2022-08-25T07:37:09;23.13;67.81
66343;DHT22;53144;51.524;5.080;2022-08-25T07:39:35;23.26;67.07
66343;DHT22;53144;51.524;5.080;2022-08-25T07:42:01;23.34;67.15
66343;DHT22;53144;51.524;5.080;2022-08-25T07:44:26;23.51;65.97
66343;DHT22;53144;51.524;5.080;2022-08-25T07:46:52;23.67;65.94
66343;DHT22;53144;51.524;5.080;2022-08-25T07:49:19;23.78;65.98
66343;DHT22;53144;51.524;5.080;2022-08-25T07:51:45;23.84;66.74
66343;DHT22;53144;51.524;5.080;2022-08-25T07:54:11;24.00;62.71
66343;DHT22;53144;51.524;5.080;2022-08-25T07:56:36;23.94;64.27
66343;DHT22;53144;51.524;5.080;2022-08-25T07:59:02;24.12;62.03
66343;DHT22;53144;51.524;5.080;2022-08-25T08:01:27;24.28;62.28
66343;DHT22;53144;51.524;5.080;2022-08-25T08:03:53;24.39;62.46
66343;DHT22;53144;51.524;5.080;2022-08-25T08:06:21;24.57;60.60
66343;DHT22;53144;51.524;5.080;2022-08-25T08:08:48;24.55;62.50
66343;DHT22;53144;51.524;5.080;2022-08-25T08:11:16;24.75;60.29
66343;DHT22;53144;51.524;5.080;2022-08-25T08:13:42;24.76;61.29
66343;DHT22;53144;51.524;5.080;2022-08-25T08:16:10;24.88;60.01
66343;DHT22;53144;51.524;5.080;2022-08-25T08:18:36;24.98;60.17
66343;DHT22;53144;51.524;5.080;2022-08-25T08:21:01;25.06;60.81
66343;DHT22;53144;51.524;5.080;2022-08-25T08:23:27;25.11;61.41
66343;DHT22;53144;51.524;5.080;2022-08-25T08:25:54;25.13;60.54
66343;DHT22;53144;51.524;5.080;2022-08-25T08:28:19;25.21;59.02
66343;DHT22;53144;51.524;5.080;2022-08-25T08:30:44;25.28;60.46
66343;DHT22;53144;51.524;5.080;2022-08-25T08:33:10;25.38;60.26
66343;DHT22;53144;51.524;5.080;2022-08-25T08:35:36;25.57;58.27
66343;DHT22;53144;51.524;5.080;2022-08-25T08:38:02;25.68;57.73
66343;DHT22;53144;51.524;5.080;2022-08-25T08:40:28;25.78;58.91
66343;DHT22;53144;51.524;5.080;2022-08-25T08:43:02;25.83;58.49
66343;DHT22;53144;51.524;5.080;2022-08-25T08:45:35;25.90;58.39
66343;DHT22;53144;51.524;5.080;2022-08-25T08:56:18;26.62;55.56
66343;DHT22;53144;51.524;5.080;2022-08-25T08:58:51;26.85;53.81
66343;DHT22;53144;51.524;5.080;2022-08-25T09:01:25;26.92;54.39
66343;DHT22;53144;51.524;5.080;2022-08-25T09:03:57;27.08;54.10
66343;DHT22;53144;51.524;5.080;2022-08-25T09:06:29;27.33;52.34
66343;DHT22;53144;51.524;5.080;2022-08-25T09:08:57;27.47;51.06
66343;DHT22;53144;51.524;5.080;2022-08-25T09:16:58;27.78;50.35
66343;DHT22;53144;51.524;5.080;2022-08-25T09:27:54;28.18;50.53
66343;DHT22;53144;51.524;5.080;2022-08-25T09:30:21;28.35;47.41
66343;DHT22;53144;51.524;5.080;2022-08-25T09:32:50;28.51;48.70
66343;DHT22;53144;51.524;5.080;2022-08-25T09:35:26;28.62;48.38
66343;DHT22;53144;51.524;5.080;2022-08-25T09:38:09;28.60;49.16
66343;DHT22;53144;51.524;5.080;2022-08-25T09:40:44;28.59;47.30
66343;DHT22;53144;51.524;5.080;2022-08-25T09:46:13;28.70;47.18
66343;DHT22;53144;51.524;5.080;2022-08-25T09:48:49;28.55;49.84
66343;DHT22;53144;51.524;5.080;2022-08-25T09:51:27;28.57;47.90
66343;DHT22;53144;51.524;5.080;2022-08-25T09:56:22;28.67;49.01
66343;DHT22;53144;51.524;5.080;2022-08-25T09:58:49;28.62;48.48
66343;DHT22;53144;51.524;5.080;2022-08-25T10:01:19;28.57;49.75
66343;DHT22;53144;51.524;5.080;2022-08-25T10:04:02;28.67;48.61
66343;DHT22;53144;51.524;5.080;2022-08-25T10:06:51;28.83;47.70
66343;DHT22;53144;51.524;5.080;2022-08-25T10:09:30;29.15;47.61
66343;DHT22;53144;51.524;5.080;2022-08-25T10:11:58;29.54;44.91
66343;DHT22;53144;51.524;5.080;2022-08-25T10:14:32;30.14;46.80
66343;DHT22;53144;51.524;5.080;2022-08-25T10:17:30;30.87;43.17
66343;DHT22;53144;51.524;5.080;2022-08-25T10:22:37;31.56;41.91
66343;DHT22;53144;51.524;5.080;2022-08-25T10:25:05;32.42;37.88
66343;DHT22;53144;51.524;5.080;2022-08-25T10:27:51;33.06;37.24
66343;DHT22;53144;51.524;5.080;2022-08-25T10:30:39;33.02;39.31
66343;DHT22;53144;51.524;5.080;2022-08-25T10:36:05;33.14;39.05
66343;DHT22;53144;51.524;5.080;2022-08-25T10:38:41;33.87;38.04
66343;DHT22;53144;51.524;5.080;2022-08-25T10:50:17;35.39;33.78
66343;DHT22;53144;51.524;5.080;2022-08-25T10:53:26;34.36;37.14
66343;DHT22;53144;51.524;5.080;2022-08-25T10:56:04;34.59;36.82
66343;DHT22;53144;51.524;5.080;2022-08-25T11:04:02;34.55;35.93
66343;DHT22;53144;51.524;5.080;2022-08-25T11:06:41;36.15;32.73
66343;DHT22;53144;51.524;5.080;2022-08-25T11:09:09;35.30;34.12
66343;DHT22;53144;51.524;5.080;2022-08-25T11:11:41;35.00;36.73
66343;DHT22;53144;51.524;5.080;2022-08-25T11:14:21;35.54;35.94
66343;DHT22;53144;51.524;5.080;2022-08-25T11:19:42;36.80;31.08
66343;DHT22;53144;51.524;5.080;2022-08-25T11:25:17;34.28;32.95
66343;DHT22;53144;51.524;5.080;2022-08-25T11:27:57;35.31;36.23
66343;DHT22;53144;51.524;5.080;2022-08-25T11:30:24;36.30;31.15
66343;DHT22;53144;51.524;5.080;2022-08-25T11:32:51;36.19;30.59
66343;DHT22;53144;51.524;5.080;2022-08-25T11:35:26;36.29;34.14
66343;DHT22;53144;51.524;5.080;2022-08-25T11:49:02;35.30;31.39
66343;DHT22;53144;51.524;5.080;2022-08-25T11:51:41;36.37;32.07
66343;DHT22;53144;51.524;5.080;2022-08-25T11:54:17;36.63;31.39
66343;DHT22;53144;51.524;5.080;2022-08-25T11:57:00;36.95;30.34
66343;DHT22;53144;51.524;5.080;2022-08-25T12:02:45;37.39;28.09
66343;DHT22;53144;51.524;5.080;2022-08-25T12:10:22;35.66;32.09
66343;DHT22;53144;51.524;5.080;2022-08-25T12:26:32;36.81;27.51
66343;DHT22;53144;51.524;5.080;2022-08-25T12:29:08;36.12;31.67
66343;DHT22;53144;51.524;5.080;2022-08-25T12:34:15;36.27;30.03
66343;DHT22;53144;51.524;5.080;2022-08-25T12:36:55;35.76;31.89
66343;DHT22;53144;51.524;5.080;2022-08-25T12:39:28;35.85;28.26
66343;DHT22;53144;51.524;5.080;2022-08-25T12:41:58;35.59;30.64
66343;DHT22;53144;51.524;5.080;2022-08-25T12:47:24;36.75;29.57
66343;DHT22;53144;51.524;5.080;2022-08-25T12:52:52;37.21;27.44
66343;DHT22;53144;51.524;5.080;2022-08-25T12:55:19;35.73;29.54
66343;DHT22;53144;51.524;5.080;2022-08-25T12:57:53;36.06;30.28
66343;DHT22;53144;51.524;5.080;2022-08-25T13:00:31;35.75;30.39
66343;DHT22;53144;51.524;5.080;2022-08-25T13:08:45;36.23;30.24
66343;DHT22;53144;51.524;5.080;2022-08-25T13:11:24;36.00;30.58
66343;DHT22;53144;51.524;5.080;2022-08-25T13:13:59;36.16;31.58
66343;DHT22;53144;51.524;5.080;2022-08-25T13:16:27;36.74;30.02
66343;DHT22;53144;51.524;5.080;2022-08-25T13:18:54;36.45;32.04
66343;DHT22;53144;51.524;5.080;2022-08-25T13:21:37;36.88;31.83
66343;DHT22;53144;51.524;5.080;2022-08-25T13:24:28;36.33;31.04
66343;DHT22;53144;51.524;5.080;2022-08-25T13:27:00;36.47;33.05
66343;DHT22;53144;51.524;5.080;2022-08-25T13:29:29;37.19;29.93
66343;DHT22;53144;51.524;5.080;2022-08-25T13:34:28;36.88;28.77
66343;DHT22;53144;51.524;5.080;2022-08-25T13:36:55;35.78;29.90
66343;DHT22;53144;51.524;5.080;2022-08-25T13:39:41;37.03;27.55
66343;DHT22;53144;51.524;5.080;2022-08-25T13:42:13;36.20;30.36
66343;DHT22;53144;51.524;5.080;2022-08-25T13:44:40;36.52;30.44
66343;DHT22;53144;51.524;5.080;2022-08-25T13:47:15;37.73;27.49
66343;DHT22;53144;51.524;5.080;2022-08-25T13:49:44;36.82;29.82
66343;DHT22;53144;51.524;5.080;2022-08-25T13:52:25;35.81;30.05
66343;DHT22;53144;51.524;5.080;2022-08-25T13:54:51;35.33;32.10
66343;DHT22;53144;51.524;5.080;2022-08-25T13:57:21;35.54;29.60
66343;DHT22;53144;51.524;5.080;2022-08-25T13:59:50;35.00;31.55
66343;DHT22;53144;51.524;5.080;2022-08-25T14:02:46;33.89;34.86
66343;DHT22;53144;51.524;5.080;2022-08-25T14:05:14;33.64;35.12
66343;DHT22;53144;51.524;5.080;2022-08-25T14:07:55;32.96;36.39
66343;DHT22;53144;51.524;5.080;2022-08-25T14:10:42;33.51;33.02
66343;DHT22;53144;51.524;5.080;2022-08-25T14:15:51;33.00;33.56
66343;DHT22;53144;51.524;5.080;2022-08-25T14:18:22;32.79;33.68
66343;DHT22;53144;51.524;5.080;2022-08-25T14:20:51;32.61;34.77
66343;DHT22;53144;51.524;5.080;2022-08-25T14:23:23;32.75;33.17
66343;DHT22;53144;51.524;5.080;2022-08-25T14:25:53;32.72;34.83
66343;DHT22;53144;51.524;5.080;2022-08-25T14:28:25;32.31;34.73
66343;DHT22;53144;51.524;5.080;2022-08-25T14:31:04;32.00;36.72
66343;DHT22;53144;51.524;5.080;2022-08-25T14:33:36;32.08;37.52
66343;DHT22;53144;51.524;5.080;2022-08-25T14:36:02;32.21;37.39
66343;DHT22;53144;51.524;5.080;2022-08-25T14:38:29;32.42;35.74
66343;DHT22;53144;51.524;5.080;2022-08-25T14:40:54;32.24;35.87
66343;DHT22;53144;51.524;5.080;2022-08-25T14:43:20;32.35;35.21
66343;DHT22;53144;51.524;5.080;2022-08-25T14:45:46;32.36;35.03
66343;DHT22;53144;51.524;5.080;2022-08-25T14:48:27;32.07;36.98
66343;DHT22;53144;51.524;5.080;2022-08-25T14:50:55;31.51;37.35
66343;DHT22;53144;51.524;5.080;2022-08-25T14:53:21;31.81;36.84
66343;DHT22;53144;51.524;5.080;2022-08-25T14:55:47;31.60;40.07
66343;DHT22;53144;51.524;5.080;2022-08-25T14:58:13;31.80;37.59
66343;DHT22;53144;51.524;5.080;2022-08-25T15:00:43;31.98;37.69
66343;DHT22;53144;51.524;5.080;2022-08-25T15:03:30;32.04;37.24
66343;DHT22;53144;51.524;5.080;2022-08-25T15:05:56;32.10;36.68
66343;DHT22;53144;51.524;5.080;2022-08-25T15:08:22;32.29;35.98
66343;DHT22;53144;51.524;5.080;2022-08-25T15:11:06;32.41;36.95
66343;DHT22;53144;51.524;5.080;2022-08-25T15:13:31;32.56;35.49
66343;DHT22;53144;51.524;5.080;2022-08-25T15:15:57;32.58;36.10
66343;DHT22;53144;51.524;5.080;2022-08-25T15:18:22;32.51;36.12
66343;DHT22;53144;51.524;5.080;2022-08-25T15:20:48;32.25;37.38
66343;DHT22;53144;51.524;5.080;2022-08-25T15:23:14;32.00;37.02
66343;DHT22;53144;51.524;5.080;2022-08-25T15:25:40;32.29;34.77
66343;DHT22;53144;51.524;5.080;2022-08-25T15:28:07;31.91;41.52
66343;DHT22;53144;51.524;5.080;2022-08-25T15:30:33;31.51;38.09
66343;DHT22;53144;51.524;5.080;2022-08-25T15:32:59;31.32;39.43
66343;DHT22;53144;51.524;5.080;2022-08-25T15:35:24;31.22;40.43
66343;DHT22;53144;51.524;5.080;2022-08-25T15:37:50;31.01;41.03
66343;DHT22;53144;51.524;5.080;2022-08-25T15:40:15;30.94;40.60
66343;DHT22;53144;51.524;5.080;2022-08-25T15:42:41;30.59;43.96
66343;DHT22;53144;51.524;5.080;2022-08-25T15:45:07;30.51;45.11
66343;DHT22;53144;51.524;5.080;2022-08-25T15:47:33;30.44;42.79
66343;DHT22;53144;51.524;5.080;2022-08-25T15:50:12;30.63;43.18
66343;DHT22;53144;51.524;5.080;2022-08-25T15:52:41;30.29;47.02
66343;DHT22;53144;51.524;5.080;2022-08-25T15:55:08;30.22;45.09
66343;DHT22;53144;51.524;5.080;2022-08-25T15:57:34;30.01;45.98
66343;DHT22;53144;51.524;5.080;2022-08-25T15:59:59;30.14;45.36
66343;DHT22;53144;51.524;5.080;2022-08-25T16:02:25;29.98;49.87
66343;DHT22;53144;51.524;5.080;2022-08-25T16:04:50;29.93;46.83
66343;DHT22;53144;51.524;5.080;2022-08-25T16:07:18;29.79;48.35
66343;DHT22;53144;51.524;5.080;2022-08-25T16:09:43;29.69;47.82
66343;DHT22;53144;51.524;5.080;2022-08-25T16:12:09;29.69;43.82
66343;DHT22;53144;51.524;5.080;2022-08-25T16:14:35;29.62;48.18
66343;DHT22;53144;51.524;5.080;2022-08-25T16:17:01;29.82;44.07
66343;DHT22;53144;51.524;5.080;2022-08-25T16:19:27;29.95;46.02
66343;DHT22;53144;51.524;5.080;2022-08-25T16:21:53;30.08;45.10
66343;DHT22;53144;51.524;5.080;2022-08-25T16:24:18;30.23;45.12
66343;DHT22;53144;51.524;5.080;2022-08-25T16:26:44;30.57;40.23
66343;DHT22;53144;51.524;5.080;2022-08-25T16:29:11;30.82;40.05
66343;DHT22;53144;51.524;5.080;2022-08-25T16:31:38;30.72;43.21
66343;DHT22;53144;51.524;5.080;2022-08-25T16:34:04;30.22;45.39
66343;DHT22;53144;51.524;5.080;2022-08-25T16:36:29;30.33;40.17
66343;DHT22;53144;51.524;5.080;2022-08-25T16:38:56;30.33;42.07
66343;DHT22;53144;51.524;5.080;2022-08-25T16:41:27;29.93;44.13
66343;DHT22;53144;51.524;5.080;2022-08-25T16:44:02;29.90;44.31
66343;DHT22;53144;51.524;5.080;2022-08-25T16:46:28;29.62;54.90
66343;DHT22;53144;51.524;5.080;2022-08-25T16:48:54;29.64;46.51
66343;DHT22;53144;51.524;5.080;2022-08-25T16:51:20;29.64;51.59
66343;DHT22;53144;51.524;5.080;2022-08-25T16:53:47;29.48;54.24
66343;DHT22;53144;51.524;5.080;2022-08-25T16:56:33;29.30;56.01
66343;DHT22;53144;51.524;5.080;2022-08-25T16:59:00;29.23;56.63
66343;DHT22;53144;51.524;5.080;2022-08-25T17:01:26;29.28;56.27
66343;DHT22;53144;51.524;5.080;2022-08-25T17:03:54;29.24;58.75
66343;DHT22;53144;51.524;5.080;2022-08-25T17:06:21;28.99;58.19
66343;DHT22;53144;51.524;5.080;2022-08-25T17:08:47;29.11;58.74
66343;DHT22;53144;51.524;5.080;2022-08-25T17:11:22;28.77;60.82
66343;DHT22;53144;51.524;5.080;2022-08-25T17:13:50;28.60;61.83
66343;DHT22;53144;51.524;5.080;2022-08-25T17:16:17;28.55;62.46
66343;DHT22;53144;51.524;5.080;2022-08-25T17:18:43;28.51;62.18
66343;DHT22;53144;51.524;5.080;2022-08-25T17:21:12;28.35;62.66
66343;DHT22;53144;51.524;5.080;2022-08-25T17:23:40;28.02;62.99
66343;DHT22;53144;51.524;5.080;2022-08-25T17:26:09;28.09;62.95
66343;DHT22;53144;51.524;5.080;2022-08-25T17:28:34;27.90;63.54
66343;DHT22;53144;51.524;5.080;2022-08-25T17:31:00;27.77;63.46
66343;DHT22;53144;51.524;5.080;2022-08-25T17:33:26;27.76;63.59
66343;DHT22;53144;51.524;5.080;2022-08-25T17:35:54;27.63;63.41
66343;DHT22;53144;51.524;5.080;2022-08-25T17:38:21;27.49;63.70